sensor_id;sensor_type;location;lat;lon;timestamp;P1;durP1;ratioP1;P2;durP2;ratioP2
8177;SDS011;4130;48.740;9.132;2023-02-15T00:01:28;9.97;;;7.07;;
8177;SDS011;4130;48.740;9.132;2023-02-15T00:03:55;13.60;;;7.90;;
8177;SDS011;4130;48.740;9.132;2023-02-15T00:06:22;11.07;;;7.37;;
8177;SDS011;4130;48.740;9.132;2023-02-15T00:08:49;11.00;;;6.80;;
8177;SDS011;4130;48.740;9.132;2023-02-15T00:11:16;12.03;;;7.70;;
8177;SDS011;4130;48.740;9.132;2023-02-15T00:14:06;11.17;;;7.30;;
8177;SDS011;4130;48.740;9.132;2023-02-15T00:16:34;10.77;;;7.17;;
8177;SDS011;4130;48.740;9.132;2023-02-15T00:19:01;9.43;;;6.77;;
8177;SDS011;4130;48.740;9.132;2023-02-15T00:21:29;13.17;;;7.57;;
8177;SDS011;4130;48.740;9.132;2023-02-15T00:23:56;11.00;;;7.00;;
8177;SDS011;4130;48.740;9.132;2023-02-15T00:26:24;12.23;;;8.07;;
8177;SDS011;4130;48.740;9.132;2023-02-15T00:28:51;13.37;;;7.27;;
8177;SDS011;4130;48.740;9.132;2023-02-15T00:31:19;10.50;;;7.33;;
8177;SDS011;4130;48.740;9.132;2023-02-15T00:33:46;11.17;;;8.17;;
8177;SDS011;4130;48.740;9.132;2023-02-15T00:36:13;12.70;;;7.00;;
8177;SDS011;4130;48.740;9.132;2023-02-15T00:38:40;10.57;;;6.97;;
8177;SDS011;4130;48.740;9.132;2023-02-15T00:41:07;9.43;;;7.07;;
8177;SDS011;4130;48.740;9.132;2023-02-15T00:43:35;12.80;;;7.10;;
8177;SDS011;4130;48.740;9.132;2023-02-15T00:46:03;11.27;;;7.03;;
8177;SDS011;4130;48.740;9.132;2023-02-15T00:48:36;9.97;;;7.73;;
8177;SDS011;4130;48.740;9.132;2023-02-15T00:51:03;12.07;;;6.83;;
8177;SDS011;4130;48.740;9.132;2023-02-15T00:53:30;9.87;;;7.17;;
8177;SDS011;4130;48.740;9.132;2023-02-15T00:55:57;9.33;;;6.13;;
8177;SDS011;4130;48.740;9.132;2023-02-15T00:58:24;9.43;;;6.67;;
8177;SDS011;4130;48.740;9.132;2023-02-15T01:00:51;12.20;;;6.77;;
8177;SDS011;4130;48.740;9.132;2023-02-15T01:03:19;11.30;;;6.97;;
8177;SDS011;4130;48.740;9.132;2023-02-15T01:05:48;9.93;;;6.87;;
8177;SDS011;4130;48.740;9.132;2023-02-15T01:08:18;8.53;;;6.57;;
8177;SDS011;4130;48.740;9.132;2023-02-15T01:10:45;9.33;;;6.93;;
8177;SDS011;4130;48.740;9.132;2023-02-15T01:13:13;12.37;;;6.73;;
8177;SDS011;4130;48.740;9.132;2023-02-15T01:15:41;10.13;;;6.83;;
8177;SDS011;4130;48.740;9.132;2023-02-15T01:18:08;10.57;;;6.73;;
8177;SDS011;4130;48.740;9.132;2023-02-15T01:20:37;12.90;;;7.43;;
8177;SDS011;4130;48.740;9.132;2023-02-15T01:23:07;9.33;;;6.40;;
8177;SDS011;4130;48.740;9.132;2023-02-15T01:25:35;11.53;;;6.87;;
8177;SDS011;4130;48.740;9.132;2023-02-15T01:28:02;8.43;;;6.13;;
8177;SDS011;4130;48.740;9.132;2023-02-15T01:30:30;10.27;;;6.53;;
8177;SDS011;4130;48.740;9.132;2023-02-15T01:32:57;13.40;;;7.87;;
8177;SDS011;4130;48.740;9.132;2023-02-15T01:35:25;12.60;;;7.07;;
8177;SDS011;4130;48.740;9.132;2023-02-15T01:37:53;8.53;;;5.97;;
8177;SDS011;4130;48.740;9.132;2023-02-15T01:40:22;9.80;;;7.17;;
8177;SDS011;4130;48.740;9.132;2023-02-15T01:42:50;9.43;;;5.97;;
8177;SDS011;4130;48.740;9.132;2023-02-15T01:45:19;10.63;;;6.93;;
8177;SDS011;4130;48.740;9.132;2023-02-15T01:47:54;11.40;;;6.80;;
8177;SDS011;4130;48.740;9.132;2023-02-15T01:50:27;8.17;;;6.00;;
8177;SDS011;4130;48.740;9.132;2023-02-15T01:52:58;8.90;;;6.70;;
8177;SDS011;4130;48.740;9.132;2023-02-15T01:55:32;12.30;;;6.93;;
8177;SDS011;4130;48.740;9.132;2023-02-15T01:58:02;10.00;;;6.40;;
8177;SDS011;4130;48.740;9.132;2023-02-15T02:00:29;9.73;;;6.70;;
8177;SDS011;4130;48.740;9.132;2023-02-15T02:02:56;8.43;;;6.23;;
8177;SDS011;4130;48.740;9.132;2023-02-15T02:05:24;13.17;;;7.00;;
8177;SDS011;4130;48.740;9.132;2023-02-15T02:07:51;11.07;;;7.20;;
8177;SDS011;4130;48.740;9.132;2023-02-15T02:10:20;10.23;;;6.50;;
8177;SDS011;4130;48.740;9.132;2023-02-15T02:12:50;8.77;;;6.50;;
8177;SDS011;4130;48.740;9.132;2023-02-15T02:15:20;8.73;;;6.47;;
8177;SDS011;4130;48.740;9.132;2023-02-15T02:17:59;9.27;;;6.67;;
8177;SDS011;4130;48.740;9.132;2023-02-15T02:20:44;9.03;;;6.07;;
8177;SDS011;4130;48.740;9.132;2023-02-15T02:29:36;8.70;;;6.03;;
8177;SDS011;4130;48.740;9.132;2023-02-15T02:35:27;11.53;;;6.10;;
8177;SDS011;4130;48.740;9.132;2023-02-15T02:38:00;9.67;;;6.20;;
8177;SDS011;4130;48.740;9.132;2023-02-15T02:40:35;10.50;;;6.93;;
8177;SDS011;4130;48.740;9.132;2023-02-15T02:43:11;13.50;;;7.00;;
8177;SDS011;4130;48.740;9.132;2023-02-15T02:45:46;9.93;;;6.30;;
8177;SDS011;4130;48.740;9.132;2023-02-15T02:48:21;8.20;;;5.97;;
8177;SDS011;4130;48.740;9.132;2023-02-15T02:50:50;10.03;;;5.57;;
8177;SDS011;4130;48.740;9.132;2023-02-15T02:53:17;9.60;;;6.73;;
8177;SDS011;4130;48.740;9.132;2023-02-15T02:55:44;11.43;;;7.23;;
8177;SDS011;4130;48.740;9.132;2023-02-15T02:58:14;11.43;;;7.37;;
8177;SDS011;4130;48.740;9.132;2023-02-15T03:00:44;9.33;;;6.00;;
8177;SDS011;4130;48.740;9.132;2023-02-15T03:03:18;8.73;;;6.17;;
8177;SDS011;4130;48.740;9.132;2023-02-15T03:05:56;8.97;;;6.23;;
8177;SDS011;4130;48.740;9.132;2023-02-15T03:08:26;10.63;;;6.03;;
8177;SDS011;4130;48.740;9.132;2023-02-15T03:10:56;10.53;;;6.40;;
8177;SDS011;4130;48.740;9.132;2023-02-15T03:13:27;8.17;;;6.10;;
8177;SDS011;4130;48.740;9.132;2023-02-15T03:15:54;8.93;;;7.13;;
8177;SDS011;4130;48.740;9.132;2023-02-15T03:18:42;12.33;;;7.20;;
8177;SDS011;4130;48.740;9.132;2023-02-15T03:21:17;10.10;;;6.70;;
8177;SDS011;4130;48.740;9.132;2023-02-15T03:23:48;8.50;;;6.67;;
8177;SDS011;4130;48.740;9.132;2023-02-15T03:26:19;10.77;;;7.57;;
8177;SDS011;4130;48.740;9.132;2023-02-15T03:28:47;12.90;;;7.40;;
8177;SDS011;4130;48.740;9.132;2023-02-15T03:31:17;8.90;;;5.90;;
8177;SDS011;4130;48.740;9.132;2023-02-15T03:33:52;9.53;;;7.30;;
8177;SDS011;4130;48.740;9.132;2023-02-15T03:36:22;9.80;;;6.30;;
8177;SDS011;4130;48.740;9.132;2023-02-15T03:38:56;8.13;;;5.87;;
8177;SDS011;4130;48.740;9.132;2023-02-15T03:41:27;12.00;;;6.93;;
8177;SDS011;4130;48.740;9.132;2023-02-15T03:44:00;10.53;;;6.90;;
8177;SDS011;4130;48.740;9.132;2023-02-15T03:46:33;12.50;;;7.00;;
8177;SDS011;4130;48.740;9.132;2023-02-15T03:49:08;11.40;;;6.60;;
8177;SDS011;4130;48.740;9.132;2023-02-15T03:51:38;11.20;;;6.97;;
8177;SDS011;4130;48.740;9.132;2023-02-15T03:54:12;10.07;;;6.80;;
8177;SDS011;4130;48.740;9.132;2023-02-15T03:57:02;11.23;;;7.17;;
8177;SDS011;4130;48.740;9.132;2023-02-15T03:59:47;12.27;;;6.63;;
8177;SDS011;4130;48.740;9.132;2023-02-15T04:02:41;10.03;;;6.80;;
8177;SDS011;4130;48.740;9.132;2023-02-15T04:05:16;11.57;;;7.37;;
8177;SDS011;4130;48.740;9.132;2023-02-15T04:07:43;11.90;;;7.67;;
8177;SDS011;4130;48.740;9.132;2023-02-15T04:10:10;8.17;;;6.57;;
8177;SDS011;4130;48.740;9.132;2023-02-15T04:12:54;9.63;;;6.27;;
8177;SDS011;4130;48.740;9.132;2023-02-15T04:15:22;8.00;;;6.50;;
8177;SDS011;4130;48.740;9.132;2023-02-15T04:18:07;9.73;;;6.43;;
8177;SDS011;4130;48.740;9.132;2023-02-15T04:20:35;9.37;;;6.53;;
8177;SDS011;4130;48.740;9.132;2023-02-15T04:23:19;11.83;;;6.77;;
8177;SDS011;4130;48.740;9.132;2023-02-15T04:26:04;12.77;;;6.73;;
8177;SDS011;4130;48.740;9.132;2023-02-15T04:28:32;10.27;;;6.37;;
8177;SDS011;4130;48.740;9.132;2023-02-15T04:30:59;11.87;;;7.03;;
8177;SDS011;4130;48.740;9.132;2023-02-15T04:33:25;9.53;;;7.60;;
8177;SDS011;4130;48.740;9.132;2023-02-15T04:35:54;9.73;;;6.53;;
8177;SDS011;4130;48.740;9.132;2023-02-15T04:38:21;10.03;;;6.33;;
8177;SDS011;4130;48.740;9.132;2023-02-15T04:40:49;12.13;;;7.57;;
8177;SDS011;4130;48.740;9.132;2023-02-15T04:43:18;11.57;;;6.97;;
8177;SDS011;4130;48.740;9.132;2023-02-15T04:45:47;9.67;;;6.67;;
8177;SDS011;4130;48.740;9.132;2023-02-15T04:48:15;10.53;;;6.97;;
8177;SDS011;4130;48.740;9.132;2023-02-15T04:50:42;9.37;;;6.80;;
8177;SDS011;4130;48.740;9.132;2023-02-15T04:53:10;8.97;;;6.80;;
8177;SDS011;4130;48.740;9.132;2023-02-15T04:55:37;9.60;;;6.67;;
8177;SDS011;4130;48.740;9.132;2023-02-15T04:58:04;11.97;;;7.13;;
8177;SDS011;4130;48.740;9.132;2023-02-15T05:00:31;14.33;;;7.53;;
8177;SDS011;4130;48.740;9.132;2023-02-15T05:02:58;10.40;;;6.83;;
8177;SDS011;4130;48.740;9.132;2023-02-15T05:05:24;12.10;;;7.27;;
8177;SDS011;4130;48.740;9.132;2023-02-15T05:07:51;10.90;;;6.63;;
8177;SDS011;4130;48.740;9.132;2023-02-15T05:10:20;11.57;;;7.33;;
8177;SDS011;4130;48.740;9.132;2023-02-15T05:12:47;14.67;;;6.93;;
8177;SDS011;4130;48.740;9.132;2023-02-15T05:15:14;10.27;;;7.43;;
8177;SDS011;4130;48.740;9.132;2023-02-15T05:17:41;11.03;;;7.17;;
8177;SDS011;4130;48.740;9.132;2023-02-15T05:20:08;13.10;;;7.97;;
8177;SDS011;4130;48.740;9.132;2023-02-15T05:22:38;11.47;;;7.23;;
8177;SDS011;4130;48.740;9.132;2023-02-15T05:25:07;10.87;;;6.83;;
8177;SDS011;4130;48.740;9.132;2023-02-15T05:27:53;12.93;;;6.80;;
8177;SDS011;4130;48.740;9.132;2023-02-15T05:30:38;9.93;;;6.73;;
8177;SDS011;4130;48.740;9.132;2023-02-15T05:33:05;11.67;;;6.93;;
8177;SDS011;4130;48.740;9.132;2023-02-15T05:35:32;11.10;;;7.30;;
8177;SDS011;4130;48.740;9.132;2023-02-15T05:38:00;10.23;;;7.03;;
8177;SDS011;4130;48.740;9.132;2023-02-15T05:40:26;14.60;;;7.13;;
8177;SDS011;4130;48.740;9.132;2023-02-15T05:42:55;9.97;;;6.63;;
8177;SDS011;4130;48.740;9.132;2023-02-15T05:45:22;11.37;;;6.97;;
8177;SDS011;4130;48.740;9.132;2023-02-15T05:47:49;11.37;;;6.43;;
8177;SDS011;4130;48.740;9.132;2023-02-15T05:50:15;11.50;;;6.63;;
8177;SDS011;4130;48.740;9.132;2023-02-15T05:52:42;8.10;;;6.13;;
8177;SDS011;4130;48.740;9.132;2023-02-15T05:55:09;12.67;;;7.10;;
8177;SDS011;4130;48.740;9.132;2023-02-15T05:57:37;9.83;;;5.93;;
8177;SDS011;4130;48.740;9.132;2023-02-15T06:00:05;11.80;;;7.00;;
8177;SDS011;4130;48.740;9.132;2023-02-15T06:02:34;10.37;;;6.90;;
8177;SDS011;4130;48.740;9.132;2023-02-15T06:05:01;12.73;;;6.80;;
8177;SDS011;4130;48.740;9.132;2023-02-15T06:07:28;10.60;;;7.33;;
8177;SDS011;4130;48.740;9.132;2023-02-15T06:09:55;10.53;;;7.13;;
8177;SDS011;4130;48.740;9.132;2023-02-15T06:12:22;8.40;;;6.20;;
8177;SDS011;4130;48.740;9.132;2023-02-15T06:14:48;10.50;;;7.13;;
8177;SDS011;4130;48.740;9.132;2023-02-15T06:17:17;9.83;;;6.67;;
8177;SDS011;4130;48.740;9.132;2023-02-15T06:19:43;9.23;;;6.07;;
8177;SDS011;4130;48.740;9.132;2023-02-15T06:22:10;9.47;;;6.37;;
8177;SDS011;4130;48.740;9.132;2023-02-15T06:24:39;8.47;;;6.00;;
8177;SDS011;4130;48.740;9.132;2023-02-15T06:27:07;9.10;;;5.83;;
8177;SDS011;4130;48.740;9.132;2023-02-15T06:29:34;8.17;;;6.00;;
8177;SDS011;4130;48.740;9.132;2023-02-15T06:32:01;9.97;;;6.60;;
8177;SDS011;4130;48.740;9.132;2023-02-15T06:34:29;10.63;;;7.00;;
8177;SDS011;4130;48.740;9.132;2023-02-15T06:36:56;9.20;;;6.40;;
8177;SDS011;4130;48.740;9.132;2023-02-15T06:39:23;9.73;;;6.20;;
8177;SDS011;4130;48.740;9.132;2023-02-15T06:41:49;11.53;;;7.07;;
8177;SDS011;4130;48.740;9.132;2023-02-15T06:44:16;8.60;;;6.47;;
8177;SDS011;4130;48.740;9.132;2023-02-15T06:46:43;8.80;;;6.77;;
8177;SDS011;4130;48.740;9.132;2023-02-15T06:49:10;10.37;;;6.90;;
8177;SDS011;4130;48.740;9.132;2023-02-15T06:51:38;9.40;;;6.70;;
8177;SDS011;4130;48.740;9.132;2023-02-15T06:54:04;10.93;;;5.97;;
8177;SDS011;4130;48.740;9.132;2023-02-15T06:56:31;9.03;;;6.20;;
8177;SDS011;4130;48.740;9.132;2023-02-15T06:58:58;9.47;;;6.53;;
8177;SDS011;4130;48.740;9.132;2023-02-15T07:01:25;8.67;;;6.80;;
8177;SDS011;4130;48.740;9.132;2023-02-15T07:03:51;10.43;;;7.10;;
8177;SDS011;4130;48.740;9.132;2023-02-15T07:06:18;9.60;;;7.30;;
8177;SDS011;4130;48.740;9.132;2023-02-15T07:08:46;8.30;;;6.33;;
8177;SDS011;4130;48.740;9.132;2023-02-15T07:11:13;10.53;;;6.87;;
8177;SDS011;4130;48.740;9.132;2023-02-15T07:13:57;9.73;;;7.10;;
8177;SDS011;4130;48.740;9.132;2023-02-15T07:16:24;10.97;;;7.23;;
8177;SDS011;4130;48.740;9.132;2023-02-15T07:18:50;9.20;;;6.00;;
8177;SDS011;4130;48.740;9.132;2023-02-15T07:21:17;8.80;;;6.30;;
8177;SDS011;4130;48.740;9.132;2023-02-15T07:23:44;11.97;;;7.30;;
8177;SDS011;4130;48.740;9.132;2023-02-15T07:26:12;12.07;;;7.20;;
8177;SDS011;4130;48.740;9.132;2023-02-15T07:28:38;11.13;;;7.53;;
8177;SDS011;4130;48.740;9.132;2023-02-15T07:31:07;10.00;;;7.23;;
8177;SDS011;4130;48.740;9.132;2023-02-15T07:33:34;9.87;;;6.90;;
8177;SDS011;4130;48.740;9.132;2023-02-15T07:36:01;12.73;;;7.97;;
8177;SDS011;4130;48.740;9.132;2023-02-15T07:38:30;13.67;;;8.70;;
8177;SDS011;4130;48.740;9.132;2023-02-15T07:40:58;14.93;;;7.33;;
8177;SDS011;4130;48.740;9.132;2023-02-15T07:43:26;11.70;;;7.50;;
8177;SDS011;4130;48.740;9.132;2023-02-15T07:45:54;12.73;;;7.87;;
8177;SDS011;4130;48.740;9.132;2023-02-15T07:48:24;11.60;;;7.70;;
8177;SDS011;4130;48.740;9.132;2023-02-15T07:50:51;14.90;;;7.33;;
8177;SDS011;4130;48.740;9.132;2023-02-15T07:53:18;10.70;;;7.57;;
8177;SDS011;4130;48.740;9.132;2023-02-15T07:55:45;11.23;;;7.67;;
8177;SDS011;4130;48.740;9.132;2023-02-15T07:58:11;13.13;;;8.73;;
8177;SDS011;4130;48.740;9.132;2023-02-15T08:00:39;11.83;;;7.97;;
8177;SDS011;4130;48.740;9.132;2023-02-15T08:03:22;12.37;;;8.03;;
8177;SDS011;4130;48.740;9.132;2023-02-15T08:05:54;12.30;;;7.70;;
8177;SDS011;4130;48.740;9.132;2023-02-15T08:08:23;14.20;;;8.67;;
8177;SDS011;4130;48.740;9.132;2023-02-15T08:11:00;16.13;;;9.43;;
8177;SDS011;4130;48.740;9.132;2023-02-15T08:13:46;15.00;;;8.93;;
8177;SDS011;4130;48.740;9.132;2023-02-15T08:16:21;13.53;;;8.30;;
8177;SDS011;4130;48.740;9.132;2023-02-15T08:18:48;14.23;;;9.80;;
8177;SDS011;4130;48.740;9.132;2023-02-15T08:21:15;15.83;;;8.93;;
8177;SDS011;4130;48.740;9.132;2023-02-15T08:23:42;14.47;;;9.60;;
8177;SDS011;4130;48.740;9.132;2023-02-15T08:26:09;15.43;;;11.53;;
8177;SDS011;4130;48.740;9.132;2023-02-15T08:28:36;19.07;;;10.60;;
8177;SDS011;4130;48.740;9.132;2023-02-15T08:31:06;14.53;;;9.00;;
8177;SDS011;4130;48.740;9.132;2023-02-15T08:33:34;11.03;;;7.80;;
8177;SDS011;4130;48.740;9.132;2023-02-15T08:36:02;12.97;;;8.93;;
8177;SDS011;4130;48.740;9.132;2023-02-15T08:38:30;12.20;;;8.57;;
8177;SDS011;4130;48.740;9.132;2023-02-15T08:40:57;13.13;;;8.50;;
8177;SDS011;4130;48.740;9.132;2023-02-15T08:43:24;14.00;;;9.47;;
8177;SDS011;4130;48.740;9.132;2023-02-15T08:45:51;14.07;;;9.27;;
8177;SDS011;4130;48.740;9.132;2023-02-15T08:48:17;11.73;;;8.80;;
8177;SDS011;4130;48.740;9.132;2023-02-15T08:50:45;16.27;;;8.60;;
8177;SDS011;4130;48.740;9.132;2023-02-15T08:53:12;12.17;;;8.23;;
8177;SDS011;4130;48.740;9.132;2023-02-15T08:55:39;11.57;;;8.70;;
8177;SDS011;4130;48.740;9.132;2023-02-15T08:58:06;14.47;;;8.53;;
8177;SDS011;4130;48.740;9.132;2023-02-15T09:00:32;18.80;;;8.67;;
8177;SDS011;4130;48.740;9.132;2023-02-15T09:02:59;11.63;;;8.10;;
8177;SDS011;4130;48.740;9.132;2023-02-15T09:05:26;13.23;;;9.30;;
8177;SDS011;4130;48.740;9.132;2023-02-15T09:07:54;12.63;;;8.20;;
8177;SDS011;4130;48.740;9.132;2023-02-15T09:10:20;15.13;;;9.03;;
8177;SDS011;4130;48.740;9.132;2023-02-15T09:12:47;14.57;;;9.07;;
8177;SDS011;4130;48.740;9.132;2023-02-15T09:15:15;15.67;;;9.80;;
8177;SDS011;4130;48.740;9.132;2023-02-15T09:17:41;14.87;;;9.63;;
8177;SDS011;4130;48.740;9.132;2023-02-15T09:20:08;16.70;;;9.57;;
8177;SDS011;4130;48.740;9.132;2023-02-15T09:22:35;16.40;;;10.43;;
8177;SDS011;4130;48.740;9.132;2023-02-15T09:25:04;13.93;;;10.00;;
8177;SDS011;4130;48.740;9.132;2023-02-15T09:27:31;14.27;;;9.97;;
8177;SDS011;4130;48.740;9.132;2023-02-15T09:29:58;17.10;;;10.30;;
8177;SDS011;4130;48.740;9.132;2023-02-15T09:32:25;17.37;;;10.07;;
8177;SDS011;4130;48.740;9.132;2023-02-15T09:34:51;14.90;;;9.97;;
8177;SDS011;4130;48.740;9.132;2023-02-15T09:37:18;15.33;;;9.93;;
8177;SDS011;4130;48.740;9.132;2023-02-15T09:39:45;19.53;;;10.93;;
8177;SDS011;4130;48.740;9.132;2023-02-15T09:42:18;20.67;;;11.27;;
8177;SDS011;4130;48.740;9.132;2023-02-15T09:45:07;20.23;;;11.83;;
8177;SDS011;4130;48.740;9.132;2023-02-15T09:47:49;22.90;;;12.03;;
8177;SDS011;4130;48.740;9.132;2023-02-15T09:50:36;21.33;;;12.27;;
8177;SDS011;4130;48.740;9.132;2023-02-15T09:53:25;22.30;;;12.63;;
8177;SDS011;4130;48.740;9.132;2023-02-15T09:56:02;24.40;;;13.03;;
8177;SDS011;4130;48.740;9.132;2023-02-15T09:58:36;22.77;;;13.23;;
8177;SDS011;4130;48.740;9.132;2023-02-15T10:01:14;21.00;;;13.77;;
8177;SDS011;4130;48.740;9.132;2023-02-15T10:03:53;25.50;;;14.20;;
8177;SDS011;4130;48.740;9.132;2023-02-15T10:06:38;31.03;;;15.23;;
8177;SDS011;4130;48.740;9.132;2023-02-15T10:12:09;26.30;;;15.73;;
8177;SDS011;4130;48.740;9.132;2023-02-15T10:14:55;36.57;;;17.10;;
8177;SDS011;4130;48.740;9.132;2023-02-15T10:17:35;28.63;;;16.40;;
8177;SDS011;4130;48.740;9.132;2023-02-15T10:20:18;30.67;;;17.87;;
8177;SDS011;4130;48.740;9.132;2023-02-15T10:22:57;29.53;;;18.60;;
8177;SDS011;4130;48.740;9.132;2023-02-15T10:25:40;30.80;;;17.90;;
8177;SDS011;4130;48.740;9.132;2023-02-15T10:28:13;31.93;;;17.47;;
8177;SDS011;4130;48.740;9.132;2023-02-15T10:30:45;32.93;;;19.93;;
8177;SDS011;4130;48.740;9.132;2023-02-15T10:33:16;35.80;;;19.77;;
8177;SDS011;4130;48.740;9.132;2023-02-15T10:36:02;36.33;;;19.70;;
8177;SDS011;4130;48.740;9.132;2023-02-15T10:38:38;38.80;;;20.50;;
8177;SDS011;4130;48.740;9.132;2023-02-15T10:41:17;33.13;;;19.57;;
8177;SDS011;4130;48.740;9.132;2023-02-15T10:43:59;39.40;;;20.87;;
8177;SDS011;4130;48.740;9.132;2023-02-15T10:46:44;32.20;;;18.70;;
8177;SDS011;4130;48.740;9.132;2023-02-15T10:49:28;24.90;;;16.17;;
8177;SDS011;4130;48.740;9.132;2023-02-15T10:52:19;27.00;;;15.27;;
8177;SDS011;4130;48.740;9.132;2023-02-15T10:54:55;20.13;;;13.23;;
8177;SDS011;4130;48.740;9.132;2023-02-15T10:57:34;17.27;;;11.33;;
8177;SDS011;4130;48.740;9.132;2023-02-15T11:00:09;15.37;;;10.13;;
8177;SDS011;4130;48.740;9.132;2023-02-15T11:02:49;16.40;;;11.10;;
8177;SDS011;4130;48.740;9.132;2023-02-15T11:05:31;14.30;;;9.70;;
8177;SDS011;4130;48.740;9.132;2023-02-15T11:08:08;14.77;;;10.13;;
8177;SDS011;4130;48.740;9.132;2023-02-15T11:10:38;15.17;;;10.40;;
8177;SDS011;4130;48.740;9.132;2023-02-15T11:13:09;14.77;;;8.90;;
8177;SDS011;4130;48.740;9.132;2023-02-15T11:15:39;14.67;;;9.50;;
8177;SDS011;4130;48.740;9.132;2023-02-15T11:18:11;18.30;;;9.97;;
8177;SDS011;4130;48.740;9.132;2023-02-15T11:20:42;14.17;;;9.93;;
8177;SDS011;4130;48.740;9.132;2023-02-15T11:23:16;17.97;;;10.13;;
8177;SDS011;4130;48.740;9.132;2023-02-15T11:25:44;16.13;;;9.97;;
8177;SDS011;4130;48.740;9.132;2023-02-15T11:28:17;15.27;;;10.53;;
8177;SDS011;4130;48.740;9.132;2023-02-15T11:30:48;20.20;;;10.47;;
8177;SDS011;4130;48.740;9.132;2023-02-15T11:33:20;16.37;;;10.53;;
8177;SDS011;4130;48.740;9.132;2023-02-15T11:35:51;17.93;;;10.93;;
8177;SDS011;4130;48.740;9.132;2023-02-15T11:38:22;18.57;;;11.10;;
8177;SDS011;4130;48.740;9.132;2023-02-15T11:40:54;15.87;;;11.10;;
8177;SDS011;4130;48.740;9.132;2023-02-15T11:43:23;16.97;;;10.97;;
8177;SDS011;4130;48.740;9.132;2023-02-15T11:45:56;19.60;;;10.57;;
8177;SDS011;4130;48.740;9.132;2023-02-15T11:48:24;14.60;;;10.07;;
8177;SDS011;4130;48.740;9.132;2023-02-15T11:50:51;16.67;;;10.30;;
8177;SDS011;4130;48.740;9.132;2023-02-15T11:53:18;18.40;;;11.10;;
8177;SDS011;4130;48.740;9.132;2023-02-15T11:55:49;19.10;;;11.33;;
8177;SDS011;4130;48.740;9.132;2023-02-15T11:58:21;14.43;;;9.67;;
8177;SDS011;4130;48.740;9.132;2023-02-15T12:00:55;15.80;;;10.80;;
8177;SDS011;4130;48.740;9.132;2023-02-15T12:03:29;17.63;;;11.30;;
8177;SDS011;4130;48.740;9.132;2023-02-15T12:06:11;15.03;;;11.00;;
8177;SDS011;4130;48.740;9.132;2023-02-15T12:08:43;17.97;;;11.03;;
8177;SDS011;4130;48.740;9.132;2023-02-15T12:11:17;16.87;;;11.00;;
8177;SDS011;4130;48.740;9.132;2023-02-15T12:13:53;19.73;;;12.07;;
8177;SDS011;4130;48.740;9.132;2023-02-15T12:16:22;23.23;;;10.90;;
8177;SDS011;4130;48.740;9.132;2023-02-15T12:18:50;16.33;;;10.57;;
8177;SDS011;4130;48.740;9.132;2023-02-15T12:21:23;18.23;;;10.70;;
8177;SDS011;4130;48.740;9.132;2023-02-15T12:23:54;19.97;;;11.23;;
8177;SDS011;4130;48.740;9.132;2023-02-15T12:26:23;17.67;;;11.40;;
8177;SDS011;4130;48.740;9.132;2023-02-15T12:28:51;16.80;;;10.80;;
8177;SDS011;4130;48.740;9.132;2023-02-15T12:31:20;15.70;;;11.00;;
8177;SDS011;4130;48.740;9.132;2023-02-15T12:33:49;20.83;;;10.77;;
8177;SDS011;4130;48.740;9.132;2023-02-15T12:36:19;18.20;;;10.67;;
8177;SDS011;4130;48.740;9.132;2023-02-15T12:39:02;15.73;;;10.23;;
8177;SDS011;4130;48.740;9.132;2023-02-15T12:41:31;15.27;;;11.17;;
8177;SDS011;4130;48.740;9.132;2023-02-15T12:44:05;16.70;;;10.53;;
8177;SDS011;4130;48.740;9.132;2023-02-15T12:46:33;17.13;;;12.10;;
8177;SDS011;4130;48.740;9.132;2023-02-15T12:49:06;18.83;;;11.53;;
8177;SDS011;4130;48.740;9.132;2023-02-15T12:51:42;19.20;;;11.37;;
8177;SDS011;4130;48.740;9.132;2023-02-15T12:54:17;18.67;;;12.03;;
8177;SDS011;4130;48.740;9.132;2023-02-15T12:56:52;17.83;;;11.17;;
8177;SDS011;4130;48.740;9.132;2023-02-15T12:59:19;16.40;;;11.37;;
8177;SDS011;4130;48.740;9.132;2023-02-15T13:01:47;17.57;;;11.37;;
8177;SDS011;4130;48.740;9.132;2023-02-15T13:04:18;16.50;;;10.97;;
8177;SDS011;4130;48.740;9.132;2023-02-15T13:06:50;17.50;;;11.93;;
8177;SDS011;4130;48.740;9.132;2023-02-15T13:09:19;17.53;;;12.10;;
8177;SDS011;4130;48.740;9.132;2023-02-15T13:12:09;22.87;;;11.67;;
8177;SDS011;4130;48.740;9.132;2023-02-15T13:14:43;18.27;;;11.23;;
8177;SDS011;4130;48.740;9.132;2023-02-15T13:17:11;17.93;;;10.83;;
8177;SDS011;4130;48.740;9.132;2023-02-15T13:19:44;17.13;;;11.50;;
8177;SDS011;4130;48.740;9.132;2023-02-15T13:22:14;19.27;;;11.20;;
8177;SDS011;4130;48.740;9.132;2023-02-15T13:24:43;18.10;;;10.93;;
8177;SDS011;4130;48.740;9.132;2023-02-15T13:27:13;17.53;;;11.80;;
8177;SDS011;4130;48.740;9.132;2023-02-15T13:29:43;18.57;;;11.20;;
8177;SDS011;4130;48.740;9.132;2023-02-15T13:32:12;22.97;;;11.80;;
8177;SDS011;4130;48.740;9.132;2023-02-15T13:34:48;20.10;;;12.00;;
8177;SDS011;4130;48.740;9.132;2023-02-15T13:37:16;17.40;;;11.20;;
8177;SDS011;4130;48.740;9.132;2023-02-15T13:39:46;18.23;;;10.43;;
8177;SDS011;4130;48.740;9.132;2023-02-15T13:42:19;18.07;;;10.80;;
8177;SDS011;4130;48.740;9.132;2023-02-15T13:44:54;16.80;;;10.43;;
8177;SDS011;4130;48.740;9.132;2023-02-15T13:47:37;16.67;;;10.67;;
8177;SDS011;4130;48.740;9.132;2023-02-15T13:50:19;18.53;;;10.83;;
8177;SDS011;4130;48.740;9.132;2023-02-15T13:52:56;19.50;;;10.40;;
8177;SDS011;4130;48.740;9.132;2023-02-15T13:55:30;18.13;;;10.50;;
8177;SDS011;4130;48.740;9.132;2023-02-15T13:58:08;13.67;;;9.33;;
8177;SDS011;4130;48.740;9.132;2023-02-15T14:00:59;15.33;;;10.40;;
8177;SDS011;4130;48.740;9.132;2023-02-15T14:03:44;12.30;;;9.00;;
8177;SDS011;4130;48.740;9.132;2023-02-15T14:06:34;20.87;;;10.67;;
8177;SDS011;4130;48.740;9.132;2023-02-15T14:09:24;14.77;;;10.60;;
8177;SDS011;4130;48.740;9.132;2023-02-15T14:12:09;15.87;;;10.77;;
8177;SDS011;4130;48.740;9.132;2023-02-15T14:14:53;19.40;;;11.13;;
8177;SDS011;4130;48.740;9.132;2023-02-15T14:17:47;17.00;;;10.50;;
8177;SDS011;4130;48.740;9.132;2023-02-15T14:20:24;13.73;;;10.40;;
8177;SDS011;4130;48.740;9.132;2023-02-15T14:23:01;16.30;;;10.97;;
8177;SDS011;4130;48.740;9.132;2023-02-15T14:25:38;15.97;;;10.53;;
8177;SDS011;4130;48.740;9.132;2023-02-15T14:28:09;16.33;;;10.50;;
8177;SDS011;4130;48.740;9.132;2023-02-15T14:30:41;16.40;;;10.70;;
8177;SDS011;4130;48.740;9.132;2023-02-15T14:33:17;15.77;;;10.50;;
8177;SDS011;4130;48.740;9.132;2023-02-15T14:35:55;16.90;;;10.83;;
8177;SDS011;4130;48.740;9.132;2023-02-15T14:38:27;20.37;;;10.87;;
8177;SDS011;4130;48.740;9.132;2023-02-15T14:41:14;16.73;;;9.80;;
8177;SDS011;4130;48.740;9.132;2023-02-15T14:43:47;18.47;;;9.97;;
8177;SDS011;4130;48.740;9.132;2023-02-15T14:46:24;16.90;;;9.83;;
8177;SDS011;4130;48.740;9.132;2023-02-15T14:48:57;17.00;;;10.30;;
8177;SDS011;4130;48.740;9.132;2023-02-15T14:57:23;15.90;;;10.13;;
8177;SDS011;4130;48.740;9.132;2023-02-15T14:59:56;16.90;;;11.10;;
8177;SDS011;4130;48.740;9.132;2023-02-15T15:02:26;17.40;;;10.37;;
8177;SDS011;4130;48.740;9.132;2023-02-15T15:04:56;16.13;;;10.63;;
8177;SDS011;4130;48.740;9.132;2023-02-15T15:07:35;14.87;;;9.77;;
8177;SDS011;4130;48.740;9.132;2023-02-15T15:10:18;17.83;;;9.60;;
8177;SDS011;4130;48.740;9.132;2023-02-15T15:16:35;19.50;;;10.67;;
8177;SDS011;4130;48.740;9.132;2023-02-15T15:22:29;14.53;;;9.70;;
8177;SDS011;4130;48.740;9.132;2023-02-15T15:24:57;17.33;;;9.83;;
8177;SDS011;4130;48.740;9.132;2023-02-15T15:27:44;17.90;;;10.77;;
8177;SDS011;4130;48.740;9.132;2023-02-15T15:48:49;14.07;;;9.83;;
8177;SDS011;4130;48.740;9.132;2023-02-15T15:51:19;17.07;;;9.10;;
8177;SDS011;4130;48.740;9.132;2023-02-15T15:53:50;14.93;;;10.27;;
8177;SDS011;4130;48.740;9.132;2023-02-15T15:56:19;15.83;;;9.67;;
8177;SDS011;4130;48.740;9.132;2023-02-15T15:58:50;14.50;;;9.47;;
8177;SDS011;4130;48.740;9.132;2023-02-15T16:01:25;16.67;;;9.83;;
8177;SDS011;4130;48.740;9.132;2023-02-15T16:03:53;14.53;;;9.33;;
8177;SDS011;4130;48.740;9.132;2023-02-15T16:06:33;15.90;;;9.37;;
8177;SDS011;4130;48.740;9.132;2023-02-15T16:09:11;15.23;;;9.80;;
8177;SDS011;4130;48.740;9.132;2023-02-15T16:11:41;12.50;;;8.97;;